sensor_id;sensor_type;location;lat;lon;timestamp;P1;durP1;ratioP1;P2;durP2;ratioP2
43628;SDS011;56545;48.224;11.678;2023-01-01T00:01:46;69.10;;;44.92;;
43628;SDS011;56545;48.224;11.678;2023-01-01T00:04:13;64.47;;;46.28;;
43628;SDS011;56545;48.224;11.678;2023-01-01T00:06:40;61.60;;;43.45;;
43628;SDS011;56545;48.224;11.678;2023-01-01T00:09:06;64.90;;;46.17;;
43628;SDS011;56545;48.224;11.678;2023-01-01T00:11:51;74.15;;;49.67;;
43628;SDS011;56545;48.224;11.678;2023-01-01T00:14:17;91.15;;;62.00;;
43628;SDS011;56545;48.224;11.678;2023-01-01T00:16:43;84.88;;;57.08;;
43628;SDS011;56545;48.224;11.678;2023-01-01T00:19:09;100.57;;;64.82;;
43628;SDS011;56545;48.224;11.678;2023-01-01T00:21:34;99.18;;;69.70;;
43628;SDS011;56545;48.224;11.678;2023-01-01T00:24:01;111.75;;;75.82;;
43628;SDS011;56545;48.224;11.678;2023-01-01T00:26:27;120.03;;;84.35;;
43628;SDS011;56545;48.224;11.678;2023-01-01T00:28:53;142.73;;;96.88;;
43628;SDS011;56545;48.224;11.678;2023-01-01T00:31:20;144.60;;;96.38;;
43628;SDS011;56545;48.224;11.678;2023-01-01T00:33:50;166.73;;;115.78;;
43628;SDS011;56545;48.224;11.678;2023-01-01T00:36:17;145.75;;;101.70;;
43628;SDS011;56545;48.224;11.678;2023-01-01T00:38:44;150.05;;;102.82;;
43628;SDS011;56545;48.224;11.678;2023-01-01T00:41:11;157.88;;;106.68;;
43628;SDS011;56545;48.224;11.678;2023-01-01T00:43:38;187.55;;;123.07;;
43628;SDS011;56545;48.224;11.678;2023-01-01T00:46:05;169.25;;;113.90;;
43628;SDS011;56545;48.224;11.678;2023-01-01T00:48:32;206.80;;;139.73;;
43628;SDS011;56545;48.224;11.678;2023-01-01T00:50:58;191.30;;;130.05;;
43628;SDS011;56545;48.224;11.678;2023-01-01T00:53:24;177.27;;;128.13;;
43628;SDS011;56545;48.224;11.678;2023-01-01T00:55:50;159.65;;;109.10;;
43628;SDS011;56545;48.224;11.678;2023-01-01T00:58:20;176.10;;;120.50;;
43628;SDS011;56545;48.224;11.678;2023-01-01T01:00:47;201.45;;;133.65;;
43628;SDS011;56545;48.224;11.678;2023-01-01T01:03:13;180.68;;;125.22;;
43628;SDS011;56545;48.224;11.678;2023-01-01T01:05:53;182.40;;;124.00;;
43628;SDS011;56545;48.224;11.678;2023-01-01T01:08:23;207.95;;;137.20;;
43628;SDS011;56545;48.224;11.678;2023-01-01T01:10:50;191.27;;;130.18;;
43628;SDS011;56545;48.224;11.678;2023-01-01T01:13:16;178.77;;;120.45;;
43628;SDS011;56545;48.224;11.678;2023-01-01T01:15:42;178.68;;;118.97;;
43628;SDS011;56545;48.224;11.678;2023-01-01T01:18:08;185.65;;;126.60;;
43628;SDS011;56545;48.224;11.678;2023-01-01T01:20:34;188.93;;;130.38;;
43628;SDS011;56545;48.224;11.678;2023-01-01T01:23:00;209.73;;;145.77;;
43628;SDS011;56545;48.224;11.678;2023-01-01T01:25:26;195.73;;;138.15;;
43628;SDS011;56545;48.224;11.678;2023-01-01T01:27:52;124.05;;;85.72;;
43628;SDS011;56545;48.224;11.678;2023-01-01T01:30:18;134.98;;;92.85;;
43628;SDS011;56545;48.224;11.678;2023-01-01T01:32:44;126.10;;;86.45;;
43628;SDS011;56545;48.224;11.678;2023-01-01T01:35:09;133.52;;;90.95;;
43628;SDS011;56545;48.224;11.678;2023-01-01T01:37:36;132.13;;;92.43;;
43628;SDS011;56545;48.224;11.678;2023-01-01T01:40:02;130.82;;;90.95;;
43628;SDS011;56545;48.224;11.678;2023-01-01T01:42:28;123.68;;;87.00;;
43628;SDS011;56545;48.224;11.678;2023-01-01T01:55:28;82.45;;;59.10;;
43628;SDS011;56545;48.224;11.678;2023-01-01T01:57:56;104.65;;;71.97;;
43628;SDS011;56545;48.224;11.678;2023-01-01T02:00:22;99.78;;;69.97;;
43628;SDS011;56545;48.224;11.678;2023-01-01T02:02:55;97.65;;;70.28;;
43628;SDS011;56545;48.224;11.678;2023-01-01T02:05:41;98.32;;;71.55;;
43628;SDS011;56545;48.224;11.678;2023-01-01T02:08:08;88.15;;;59.90;;
43628;SDS011;56545;48.224;11.678;2023-01-01T02:10:36;102.28;;;72.07;;
43628;SDS011;56545;48.224;11.678;2023-01-01T02:13:02;99.68;;;69.82;;
43628;SDS011;56545;48.224;11.678;2023-01-01T02:15:29;94.55;;;64.00;;
43628;SDS011;56545;48.224;11.678;2023-01-01T02:18:00;95.10;;;67.68;;
43628;SDS011;56545;48.224;11.678;2023-01-01T02:20:39;104.57;;;74.90;;
43628;SDS011;56545;48.224;11.678;2023-01-01T02:26:39;101.90;;;69.00;;
43628;SDS011;56545;48.224;11.678;2023-01-01T02:29:13;95.25;;;68.32;;
43628;SDS011;56545;48.224;11.678;2023-01-01T02:31:49;106.53;;;75.57;;
43628;SDS011;56545;48.224;11.678;2023-01-01T02:34:24;109.90;;;78.55;;
43628;SDS011;56545;48.224;11.678;2023-01-01T02:36:53;98.72;;;71.35;;
43628;SDS011;56545;48.224;11.678;2023-01-01T02:39:21;95.60;;;63.40;;
43628;SDS011;56545;48.224;11.678;2023-01-01T02:41:51;96.78;;;65.25;;
43628;SDS011;56545;48.224;11.678;2023-01-01T02:44:18;97.85;;;71.65;;
43628;SDS011;56545;48.224;11.678;2023-01-01T02:46:46;87.38;;;59.78;;
43628;SDS011;56545;48.224;11.678;2023-01-01T02:49:12;91.47;;;63.22;;
43628;SDS011;56545;48.224;11.678;2023-01-01T03:00:07;81.50;;;54.38;;
43628;SDS011;56545;48.224;11.678;2023-01-01T03:05:52;69.72;;;49.72;;
43628;SDS011;56545;48.224;11.678;2023-01-01T03:16:56;90.00;;;62.05;;
43628;SDS011;56545;48.224;11.678;2023-01-01T03:19:29;79.63;;;58.17;;
43628;SDS011;56545;48.224;11.678;2023-01-01T03:22:03;87.03;;;59.28;;
43628;SDS011;56545;48.224;11.678;2023-01-01T03:24:56;73.55;;;53.08;;
43628;SDS011;56545;48.224;11.678;2023-01-01T03:30:12;69.82;;;50.88;;
43628;SDS011;56545;48.224;11.678;2023-01-01T03:32:41;63.55;;;45.88;;
43628;SDS011;56545;48.224;11.678;2023-01-01T03:35:30;60.72;;;44.13;;
43628;SDS011;56545;48.224;11.678;2023-01-01T03:38:28;59.67;;;43.45;;
43628;SDS011;56545;48.224;11.678;2023-01-01T03:41:06;62.63;;;45.55;;
43628;SDS011;56545;48.224;11.678;2023-01-01T03:43:41;53.40;;;39.15;;
43628;SDS011;56545;48.224;11.678;2023-01-01T03:46:13;56.45;;;42.92;;
43628;SDS011;56545;48.224;11.678;2023-01-01T03:48:44;49.40;;;37.25;;
43628;SDS011;56545;48.224;11.678;2023-01-01T03:57:12;45.30;;;31.60;;
43628;SDS011;56545;48.224;11.678;2023-01-01T04:00:04;46.30;;;34.65;;
43628;SDS011;56545;48.224;11.678;2023-01-01T04:02:36;45.42;;;34.03;;
43628;SDS011;56545;48.224;11.678;2023-01-01T04:05:08;47.80;;;35.08;;
43628;SDS011;56545;48.224;11.678;2023-01-01T04:07:34;47.30;;;34.00;;
43628;SDS011;56545;48.224;11.678;2023-01-01T04:10:01;46.25;;;32.90;;
43628;SDS011;56545;48.224;11.678;2023-01-01T04:12:41;43.40;;;29.38;;
43628;SDS011;56545;48.224;11.678;2023-01-01T04:15:19;32.17;;;22.85;;
43628;SDS011;56545;48.224;11.678;2023-01-01T04:17:48;34.58;;;25.00;;
43628;SDS011;56545;48.224;11.678;2023-01-01T04:20:14;35.95;;;25.17;;
43628;SDS011;56545;48.224;11.678;2023-01-01T04:22:40;35.20;;;25.10;;
43628;SDS011;56545;48.224;11.678;2023-01-01T04:25:07;31.88;;;23.98;;
43628;SDS011;56545;48.224;11.678;2023-01-01T04:27:33;31.38;;;22.60;;
43628;SDS011;56545;48.224;11.678;2023-01-01T04:30:00;32.35;;;23.48;;
43628;SDS011;56545;48.224;11.678;2023-01-01T04:32:26;34.13;;;25.80;;
43628;SDS011;56545;48.224;11.678;2023-01-01T04:34:53;22.40;;;14.75;;
43628;SDS011;56545;48.224;11.678;2023-01-01T04:37:19;22.90;;;16.00;;
43628;SDS011;56545;48.224;11.678;2023-01-01T04:39:45;19.88;;;13.80;;
43628;SDS011;56545;48.224;11.678;2023-01-01T04:42:11;23.42;;;16.80;;
43628;SDS011;56545;48.224;11.678;2023-01-01T04:44:37;27.73;;;19.88;;
43628;SDS011;56545;48.224;11.678;2023-01-01T04:47:03;25.45;;;18.35;;
43628;SDS011;56545;48.224;11.678;2023-01-01T04:49:29;25.65;;;17.92;;
43628;SDS011;56545;48.224;11.678;2023-01-01T04:51:55;19.27;;;13.45;;
43628;SDS011;56545;48.224;11.678;2023-01-01T04:54:20;18.52;;;12.27;;
43628;SDS011;56545;48.224;11.678;2023-01-01T04:56:46;14.85;;;9.13;;
43628;SDS011;56545;48.224;11.678;2023-01-01T04:59:12;13.93;;;8.65;;
43628;SDS011;56545;48.224;11.678;2023-01-01T05:01:38;13.27;;;8.48;;
43628;SDS011;56545;48.224;11.678;2023-01-01T05:04:04;13.32;;;7.80;;
43628;SDS011;56545;48.224;11.678;2023-01-01T05:06:30;13.10;;;8.10;;
43628;SDS011;56545;48.224;11.678;2023-01-01T05:08:56;12.00;;;6.45;;
43628;SDS011;56545;48.224;11.678;2023-01-01T05:11:24;11.00;;;6.63;;
43628;SDS011;56545;48.224;11.678;2023-01-01T05:13:52;13.73;;;8.38;;
43628;SDS011;56545;48.224;11.678;2023-01-01T05:16:20;11.30;;;7.15;;
43628;SDS011;56545;48.224;11.678;2023-01-01T05:18:48;11.48;;;7.40;;
43628;SDS011;56545;48.224;11.678;2023-01-01T05:21:16;10.77;;;6.40;;
43628;SDS011;56545;48.224;11.678;2023-01-01T05:23:44;11.07;;;6.10;;
43628;SDS011;56545;48.224;11.678;2023-01-01T05:26:16;10.75;;;6.30;;
43628;SDS011;56545;48.224;11.678;2023-01-01T05:28:44;9.80;;;5.20;;
43628;SDS011;56545;48.224;11.678;2023-01-01T05:31:13;12.27;;;5.70;;
43628;SDS011;56545;48.224;11.678;2023-01-01T05:33:41;9.05;;;5.25;;
43628;SDS011;56545;48.224;11.678;2023-01-01T05:36:07;9.18;;;5.43;;
43628;SDS011;56545;48.224;11.678;2023-01-01T05:38:40;10.20;;;6.22;;
43628;SDS011;56545;48.224;11.678;2023-01-01T05:41:07;9.10;;;5.22;;
43628;SDS011;56545;48.224;11.678;2023-01-01T05:43:35;9.80;;;5.10;;
43628;SDS011;56545;48.224;11.678;2023-01-01T05:46:06;10.25;;;5.30;;
43628;SDS011;56545;48.224;11.678;2023-01-01T05:48:36;9.50;;;5.68;;
43628;SDS011;56545;48.224;11.678;2023-01-01T05:51:06;9.02;;;5.47;;
43628;SDS011;56545;48.224;11.678;2023-01-01T05:53:37;9.40;;;5.53;;
43628;SDS011;56545;48.224;11.678;2023-01-01T05:56:03;10.13;;;4.78;;
43628;SDS011;56545;48.224;11.678;2023-01-01T05:58:30;10.73;;;5.40;;
43628;SDS011;56545;48.224;11.678;2023-01-01T06:01:03;10.30;;;5.30;;
43628;SDS011;56545;48.224;11.678;2023-01-01T06:03:34;8.73;;;4.28;;
43628;SDS011;56545;48.224;11.678;2023-01-01T06:06:08;8.57;;;5.20;;
43628;SDS011;56545;48.224;11.678;2023-01-01T06:08:35;10.00;;;5.15;;
43628;SDS011;56545;48.224;11.678;2023-01-01T06:11:03;8.23;;;4.65;;
43628;SDS011;56545;48.224;11.678;2023-01-01T06:13:30;8.63;;;4.68;;
43628;SDS011;56545;48.224;11.678;2023-01-01T06:15:58;8.57;;;4.57;;
43628;SDS011;56545;48.224;11.678;2023-01-01T06:18:25;8.40;;;5.15;;
43628;SDS011;56545;48.224;11.678;2023-01-01T06:20:53;9.65;;;4.68;;
43628;SDS011;56545;48.224;11.678;2023-01-01T06:23:19;8.30;;;4.15;;
43628;SDS011;56545;48.224;11.678;2023-01-01T06:25:45;7.75;;;4.22;;
43628;SDS011;56545;48.224;11.678;2023-01-01T06:28:11;7.78;;;4.43;;
43628;SDS011;56545;48.224;11.678;2023-01-01T06:30:37;8.30;;;4.63;;
43628;SDS011;56545;48.224;11.678;2023-01-01T06:33:03;8.13;;;4.75;;
43628;SDS011;56545;48.224;11.678;2023-01-01T06:35:29;7.95;;;4.90;;
43628;SDS011;56545;48.224;11.678;2023-01-01T06:37:57;9.88;;;4.95;;
43628;SDS011;56545;48.224;11.678;2023-01-01T06:40:24;9.13;;;4.82;;
43628;SDS011;56545;48.224;11.678;2023-01-01T06:42:50;10.15;;;5.00;;
43628;SDS011;56545;48.224;11.678;2023-01-01T06:45:16;8.52;;;5.10;;
43628;SDS011;56545;48.224;11.678;2023-01-01T06:47:41;8.50;;;4.97;;
43628;SDS011;56545;48.224;11.678;2023-01-01T06:50:07;8.18;;;4.88;;
43628;SDS011;56545;48.224;11.678;2023-01-01T06:52:33;7.22;;;3.75;;
43628;SDS011;56545;48.224;11.678;2023-01-01T06:55:01;8.40;;;4.40;;
43628;SDS011;56545;48.224;11.678;2023-01-01T06:57:27;8.00;;;4.15;;
43628;SDS011;56545;48.224;11.678;2023-01-01T06:59:54;8.75;;;4.50;;
43628;SDS011;56545;48.224;11.678;2023-01-01T07:02:20;9.10;;;4.80;;
43628;SDS011;56545;48.224;11.678;2023-01-01T07:04:46;7.75;;;4.28;;
43628;SDS011;56545;48.224;11.678;2023-01-01T07:07:12;9.18;;;4.18;;
43628;SDS011;56545;48.224;11.678;2023-01-01T07:09:38;9.80;;;4.13;;
43628;SDS011;56545;48.224;11.678;2023-01-01T07:12:03;6.70;;;3.63;;
43628;SDS011;56545;48.224;11.678;2023-01-01T07:14:30;8.50;;;4.10;;
43628;SDS011;56545;48.224;11.678;2023-01-01T07:16:55;7.25;;;4.00;;
43628;SDS011;56545;48.224;11.678;2023-01-01T07:19:21;7.10;;;3.88;;
43628;SDS011;56545;48.224;11.678;2023-01-01T07:21:51;7.43;;;3.72;;
43628;SDS011;56545;48.224;11.678;2023-01-01T07:24:18;8.43;;;3.65;;
43628;SDS011;56545;48.224;11.678;2023-01-01T07:26:44;7.60;;;3.70;;
43628;SDS011;56545;48.224;11.678;2023-01-01T07:29:10;6.38;;;3.40;;
43628;SDS011;56545;48.224;11.678;2023-01-01T07:31:37;6.55;;;3.53;;
43628;SDS011;56545;48.224;11.678;2023-01-01T07:34:05;6.70;;;3.40;;
43628;SDS011;56545;48.224;11.678;2023-01-01T07:36:32;7.15;;;3.78;;
43628;SDS011;56545;48.224;11.678;2023-01-01T07:38:58;6.43;;;3.17;;
43628;SDS011;56545;48.224;11.678;2023-01-01T07:41:25;5.95;;;2.72;;
43628;SDS011;56545;48.224;11.678;2023-01-01T07:43:51;7.18;;;3.20;;
43628;SDS011;56545;48.224;11.678;2023-01-01T07:46:17;6.25;;;2.75;;
43628;SDS011;56545;48.224;11.678;2023-01-01T07:48:43;5.82;;;3.00;;
43628;SDS011;56545;48.224;11.678;2023-01-01T07:51:09;6.03;;;3.10;;
43628;SDS011;56545;48.224;11.678;2023-01-01T07:53:35;4.65;;;1.95;;
43628;SDS011;56545;48.224;11.678;2023-01-01T07:56:01;6.18;;;2.20;;
43628;SDS011;56545;48.224;11.678;2023-01-01T07:58:27;4.97;;;2.63;;
43628;SDS011;56545;48.224;11.678;2023-01-01T08:00:53;5.72;;;3.13;;
43628;SDS011;56545;48.224;11.678;2023-01-01T08:03:19;5.22;;;2.65;;
43628;SDS011;56545;48.224;11.678;2023-01-01T08:05:45;5.90;;;2.33;;
43628;SDS011;56545;48.224;11.678;2023-01-01T08:08:11;9.68;;;3.58;;
43628;SDS011;56545;48.224;11.678;2023-01-01T08:10:40;5.25;;;2.58;;
43628;SDS011;56545;48.224;11.678;2023-01-01T08:13:06;6.70;;;2.75;;
43628;SDS011;56545;48.224;11.678;2023-01-01T08:15:32;5.15;;;2.47;;
43628;SDS011;56545;48.224;11.678;2023-01-01T08:17:59;5.05;;;2.42;;
43628;SDS011;56545;48.224;11.678;2023-01-01T08:20:27;5.13;;;2.17;;
43628;SDS011;56545;48.224;11.678;2023-01-01T08:22:54;4.50;;;2.00;;
43628;SDS011;56545;48.224;11.678;2023-01-01T08:25:20;4.55;;;2.00;;
43628;SDS011;56545;48.224;11.678;2023-01-01T08:27:46;4.47;;;2.17;;
43628;SDS011;56545;48.224;11.678;2023-01-01T08:30:13;4.70;;;1.70;;
43628;SDS011;56545;48.224;11.678;2023-01-01T08:32:40;4.50;;;1.70;;
43628;SDS011;56545;48.224;11.678;2023-01-01T08:35:06;5.45;;;2.03;;
43628;SDS011;56545;48.224;11.678;2023-01-01T08:37:32;4.22;;;2.13;;
43628;SDS011;56545;48.224;11.678;2023-01-01T08:39:58;3.70;;;1.80;;
43628;SDS011;56545;48.224;11.678;2023-01-01T08:42:24;4.00;;;1.80;;
43628;SDS011;56545;48.224;11.678;2023-01-01T08:44:50;3.53;;;1.75;;
43628;SDS011;56545;48.224;11.678;2023-01-01T08:47:17;3.83;;;1.70;;
43628;SDS011;56545;48.224;11.678;2023-01-01T08:49:44;5.72;;;2.25;;
43628;SDS011;56545;48.224;11.678;2023-01-01T08:52:10;4.70;;;2.05;;
43628;SDS011;56545;48.224;11.678;2023-01-01T08:54:36;4.70;;;2.35;;
43628;SDS011;56545;48.224;11.678;2023-01-01T08:57:02;5.80;;;2.47;;
43628;SDS011;56545;48.224;11.678;2023-01-01T08:59:28;36.22;;;23.80;;
43628;SDS011;56545;48.224;11.678;2023-01-01T09:01:54;5.80;;;2.67;;
43628;SDS011;56545;48.224;11.678;2023-01-01T09:04:20;5.25;;;1.95;;
43628;SDS011;56545;48.224;11.678;2023-01-01T09:06:46;4.85;;;1.98;;
43628;SDS011;56545;48.224;11.678;2023-01-01T09:09:12;4.80;;;2.25;;
43628;SDS011;56545;48.224;11.678;2023-01-01T09:11:38;5.55;;;2.10;;
43628;SDS011;56545;48.224;11.678;2023-01-01T09:14:04;4.65;;;2.20;;
43628;SDS011;56545;48.224;11.678;2023-01-01T09:16:30;6.22;;;2.90;;
43628;SDS011;56545;48.224;11.678;2023-01-01T09:18:55;5.22;;;2.38;;
43628;SDS011;56545;48.224;11.678;2023-01-01T09:21:21;5.72;;;2.53;;
43628;SDS011;56545;48.224;11.678;2023-01-01T09:23:47;4.07;;;2.10;;
43628;SDS011;56545;48.224;11.678;2023-01-01T09:26:13;4.85;;;2.20;;
43628;SDS011;56545;48.224;11.678;2023-01-01T09:28:39;3.75;;;1.90;;
43628;SDS011;56545;48.224;11.678;2023-01-01T09:31:05;4.53;;;2.10;;
43628;SDS011;56545;48.224;11.678;2023-01-01T09:33:31;5.38;;;1.80;;
43628;SDS011;56545;48.224;11.678;2023-01-01T09:38:47;4.05;;;2.00;;
43628;SDS011;56545;48.224;11.678;2023-01-01T09:41:26;3.88;;;1.88;;
43628;SDS011;56545;48.224;11.678;2023-01-01T09:46:33;3.30;;;1.70;;
43628;SDS011;56545;48.224;11.678;2023-01-01T09:49:02;3.25;;;1.85;;
43628;SDS011;56545;48.224;11.678;2023-01-01T09:51:36;3.60;;;2.08;;
43628;SDS011;56545;48.224;11.678;2023-01-01T09:56:55;3.08;;;1.58;;
43628;SDS011;56545;48.224;11.678;2023-01-01T09:59:23;2.15;;;1.40;;
43628;SDS011;56545;48.224;11.678;2023-01-01T10:05:04;3.13;;;1.60;;
43628;SDS011;56545;48.224;11.678;2023-01-01T10:07:53;5.05;;;3.00;;
43628;SDS011;56545;48.224;11.678;2023-01-01T10:15:57;3.13;;;1.48;;
43628;SDS011;56545;48.224;11.678;2023-01-01T10:18:28;2.83;;;1.50;;
43628;SDS011;56545;48.224;11.678;2023-01-01T10:23:34;2.65;;;1.33;;
43628;SDS011;56545;48.224;11.678;2023-01-01T10:26:08;3.08;;;1.55;;
43628;SDS011;56545;48.224;11.678;2023-01-01T10:28:42;2.97;;;1.50;;
43628;SDS011;56545;48.224;11.678;2023-01-01T10:31:42;3.10;;;1.50;;
43628;SDS011;56545;48.224;11.678;2023-01-01T10:34:14;2.72;;;1.40;;
43628;SDS011;56545;48.224;11.678;2023-01-01T10:36:43;3.03;;;1.55;;
43628;SDS011;56545;48.224;11.678;2023-01-01T10:39:16;3.17;;;1.70;;
43628;SDS011;56545;48.224;11.678;2023-01-01T10:41:42;7.05;;;5.15;;
43628;SDS011;56545;48.224;11.678;2023-01-01T10:44:10;5.53;;;3.38;;
43628;SDS011;56545;48.224;11.678;2023-01-01T10:46:39;4.07;;;2.55;;
43628;SDS011;56545;48.224;11.678;2023-01-01T10:49:12;5.38;;;2.50;;
43628;SDS011;56545;48.224;11.678;2023-01-01T10:51:42;4.03;;;2.30;;
43628;SDS011;56545;48.224;11.678;2023-01-01T10:54:31;3.70;;;2.20;;
43628;SDS011;56545;48.224;11.678;2023-01-01T10:59:42;3.85;;;2.00;;
43628;SDS011;56545;48.224;11.678;2023-01-01T11:04:48;4.32;;;2.30;;
43628;SDS011;56545;48.224;11.678;2023-01-01T11:07:17;7.00;;;1.75;;
43628;SDS011;56545;48.224;11.678;2023-01-01T11:09:56;2.95;;;1.63;;
43628;SDS011;56545;48.224;11.678;2023-01-01T11:12:29;3.10;;;1.63;;
43628;SDS011;56545;48.224;11.678;2023-01-01T11:14:59;3.00;;;1.67;;
43628;SDS011;56545;48.224;11.678;2023-01-01T11:17:26;2.83;;;1.75;;
43628;SDS011;56545;48.224;11.678;2023-01-01T11:19:54;4.68;;;1.80;;
43628;SDS011;56545;48.224;11.678;2023-01-01T11:22:36;3.60;;;1.90;;
43628;SDS011;56545;48.224;11.678;2023-01-01T11:25:18;3.50;;;2.08;;
43628;SDS011;56545;48.224;11.678;2023-01-01T11:27:49;3.53;;;1.80;;
43628;SDS011;56545;48.224;11.678;2023-01-01T11:30:23;3.25;;;1.70;;
43628;SDS011;56545;48.224;11.678;2023-01-01T11:32:54;4.20;;;1.63;;
43628;SDS011;56545;48.224;11.678;2023-01-01T11:37:54;2.53;;;1.40;;
43628;SDS011;56545;48.224;11.678;2023-01-01T11:40:23;2.97;;;1.50;;
43628;SDS011;56545;48.224;11.678;2023-01-01T11:43:00;2.85;;;1.60;;
43628;SDS011;56545;48.224;11.678;2023-01-01T11:45:32;2.50;;;1.65;;
43628;SDS011;56545;48.224;11.678;2023-01-01T11:48:02;4.20;;;1.52;;
43628;SDS011;56545;48.224;11.678;2023-01-01T11:50:34;3.40;;;1.60;;
43628;SDS011;56545;48.224;11.678;2023-01-01T11:55:53;3.40;;;1.63;;
43628;SDS011;56545;48.224;11.678;2023-01-01T12:01:06;3.45;;;1.63;;
43628;SDS011;56545;48.224;11.678;2023-01-01T12:03:42;3.60;;;1.70;;
43628;SDS011;56545;48.224;11.678;2023-01-01T12:06:28;3.03;;;1.67;;
43628;SDS011;56545;48.224;11.678;2023-01-01T12:09:00;2.92;;;1.80;;
43628;SDS011;56545;48.224;11.678;2023-01-01T12:11:40;4.28;;;1.60;;
43628;SDS011;56545;48.224;11.678;2023-01-01T12:19:23;2.72;;;1.50;;
43628;SDS011;56545;48.224;11.678;2023-01-01T12:21:53;2.83;;;1.40;;
43628;SDS011;56545;48.224;11.678;2023-01-01T12:24:22;4.68;;;2.00;;
43628;SDS011;56545;48.224;11.678;2023-01-01T12:27:04;3.33;;;1.80;;
43628;SDS011;56545;48.224;11.678;2023-01-01T12:55:07;3.08;;;1.67;;
43628;SDS011;56545;48.224;11.678;2023-01-01T12:57:50;2.00;;;1.33;;
43628;SDS011;56545;48.224;11.678;2023-01-01T13:00:23;2.58;;;1.50;;
43628;SDS011;56545;48.224;11.678;2023-01-01T13:02:51;2.50;;;1.30;;
43628;SDS011;56545;48.224;11.678;2023-01-01T13:05:23;2.72;;;1.58;;
43628;SDS011;56545;48.224;11.678;2023-01-01T13:07:57;2.95;;;1.70;;
43628;SDS011;56545;48.224;11.678;2023-01-01T13:10:26;3.50;;;1.60;;
43628;SDS011;56545;48.224;11.678;2023-01-01T13:12:58;4.70;;;1.40;;
43628;SDS011;56545;48.224;11.678;2023-01-01T13:18:04;2.90;;;1.25;;
43628;SDS011;56545;48.224;11.678;2023-01-01T13:20:33;2.90;;;1.40;;
43628;SDS011;56545;48.224;11.678;2023-01-01T13:23:02;4.70;;;2.38;;
43628;SDS011;56545;48.224;11.678;2023-01-01T13:25:28;6.40;;;3.42;;
43628;SDS011;56545;48.224;11.678;2023-01-01T13:35:42;8.95;;;5.93;;
43628;SDS011;56545;48.224;11.678;2023-01-01T13:43:50;3.38;;;1.77;;
43628;SDS011;56545;48.224;11.678;2023-01-01T14:00:08;2.45;;;1.38;;
43628;SDS011;56545;48.224;11.678;2023-01-01T14:02:52;2.88;;;1.30;;
43628;SDS011;56545;48.224;11.678;2023-01-01T14:07:53;2.67;;;1.20;;
43628;SDS011;56545;48.224;11.678;2023-01-01T14:10:26;2.80;;;1.40;;
43628;SDS011;56545;48.224;11.678;2023-01-01T14:13:01;3.05;;;1.00;;
43628;SDS011;56545;48.224;11.678;2023-01-01T14:18:17;3.75;;;1.40;;
43628;SDS011;56545;48.224;11.678;2023-01-01T14:20:45;3.55;;;1.45;;
43628;SDS011;56545;48.224;11.678;2023-01-01T14:25:54;3.70;;;1.50;;
43628;SDS011;56545;48.224;11.678;2023-01-01T14:28:23;3.63;;;1.35;;
43628;SDS011;56545;48.224;11.678;2023-01-01T14:30:51;4.13;;;2.15;;
43628;SDS011;56545;48.224;11.678;2023-01-01T14:33:28;4.38;;;2.28;;
43628;SDS011;56545;48.224;11.678;2023-01-01T14:35:57;5.00;;;2.50;;
43628;SDS011;56545;48.224;11.678;2023-01-01T14:38:29;4.75;;;2.65;;
43628;SDS011;56545;48.224;11.678;2023-01-01T14:41:16;6.93;;;2.60;;
43628;SDS011;56545;48.224;11.678;2023-01-01T14:43:53;4.90;;;2.53;;
43628;SDS011;56545;48.224;11.678;2023-01-01T14:48:54;5.03;;;2.15;;
43628;SDS011;56545;48.224;11.678;2023-01-01T14:51:26;4.32;;;1.90;;
43628;SDS011;56545;48.224;11.678;2023-01-01T14:53:54;3.67;;;2.10;;
43628;SDS011;56545;48.224;11.678;2023-01-01T14:56:26;4.10;;;1.88;;
43628;SDS011;56545;48.224;11.678;2023-01-01T14:58:55;5.55;;;2.10;;
43628;SDS011;56545;48.224;11.678;2023-01-01T15:01:31;4.30;;;2.03;;
43628;SDS011;56545;48.224;11.678;2023-01-01T15:03:58;4.68;;;1.80;;
43628;SDS011;56545;48.224;11.678;2023-01-01T15:06:26;3.70;;;1.90;;
43628;SDS011;56545;48.224;11.678;2023-01-01T15:08:52;4.65;;;2.10;;
43628;SDS011;56545;48.224;11.678;2023-01-01T15:11:18;3.38;;;1.70;;
43628;SDS011;56545;48.224;11.678;2023-01-01T15:14:47;3.28;;;1.65;;
43628;SDS011;56545;48.224;11.678;2023-01-01T15:19:27;17.33;;;11.82;;
43628;SDS011;56545;48.224;11.678;2023-01-01T15:21:53;4.43;;;2.15;;
43628;SDS011;56545;48.224;11.678;2023-01-01T15:24:20;4.18;;;1.80;;
43628;SDS011;56545;48.224;11.678;2023-01-01T15:26:54;3.72;;;2.10;;
43628;SDS011;56545;48.224;11.678;2023-01-01T15:29:24;3.17;;;1.55;;
43628;SDS011;56545;48.224;11.678;2023-01-01T15:31:56;5.13;;;2.28;;
43628;SDS011;56545;48.224;11.678;2023-01-01T15:39:44;3.33;;;1.60;;
43628;SDS011;56545;48.224;11.678;2023-01-01T15:42:31;3.60;;;1.73;;
43628;SDS011;56545;48.224;11.678;2023-01-01T15:45:36;4.13;;;1.48;;
43628;SDS011;56545;48.224;11.678;2023-01-01T15:50:39;3.78;;;1.80;;
43628;SDS011;56545;48.224;11.678;2023-01-01T15:53:23;4.18;;;1.80;;
43628;SDS011;56545;48.224;11.678;2023-01-01T15:55:54;5.15;;;2.10;;
43628;SDS011;56545;48.224;11.678;2023-01-01T15:58:29;3.97;;;2.00;;
43628;SDS011;56545;48.224;11.678;2023-01-01T16:01:01;4.22;;;1.90;;
43628;SDS011;56545;48.224;11.678;2023-01-01T16:03:30;4.07;;;1.80;;
43628;SDS011;56545;48.224;11.678;2023-01-01T16:05:57;6.13;;;2.17;;
43628;SDS011;56545;48.224;11.678;2023-01-01T16:08:24;4.90;;;1.75;;
43628;SDS011;56545;48.224;11.678;2023-01-01T16:10:50;4.32;;;1.80;;
43628;SDS011;56545;48.224;11.678;2023-01-01T16:13:16;6.15;;;2.10;;
43628;SDS011;56545;48.224;11.678;2023-01-01T16:18:20;4.72;;;2.03;;
43628;SDS011;56545;48.224;11.678;2023-01-01T16:20:55;67.85;;;50.85;;
43628;SDS011;56545;48.224;11.678;2023-01-01T16:23:21;9.40;;;5.47;;
43628;SDS011;56545;48.224;11.678;2023-01-01T16:25:47;10.38;;;2.80;;
43628;SDS011;56545;48.224;11.678;2023-01-01T16:28:13;5.88;;;2.80;;
43628;SDS011;56545;48.224;11.678;2023-01-01T16:30:39;5.45;;;2.45;;
43628;SDS011;56545;48.224;11.678;2023-01-01T16:33:10;5.65;;;2.65;;
43628;SDS011;56545;48.224;11.678;2023-01-01T16:35:41;6.78;;;2.70;;
43628;SDS011;56545;48.224;11.678;2023-01-01T16:38:07;6.80;;;2.38;;
43628;SDS011;56545;48.224;11.678;2023-01-01T16:40:33;8.10;;;4.63;;
43628;SDS011;56545;48.224;11.678;2023-01-01T16:42:59;7.95;;;4.38;;
43628;SDS011;56545;48.224;11.678;2023-01-01T16:45:25;4.88;;;2.60;;
43628;SDS011;56545;48.224;11.678;2023-01-01T16:47:51;5.22;;;2.40;;
43628;SDS011;56545;48.224;11.678;2023-01-01T16:50:18;5.72;;;2.17;;
43628;SDS011;56545;48.224;11.678;2023-01-01T16:52:44;4.22;;;1.95;;
43628;SDS011;56545;48.224;11.678;2023-01-01T16:55:11;5.38;;;2.08;;
43628;SDS011;56545;48.224;11.678;2023-01-01T16:57:37;4.97;;;2.30;;
43628;SDS011;56545;48.224;11.678;2023-01-01T17:00:04;4.55;;;2.13;;
43628;SDS011;56545;48.224;11.678;2023-01-01T17:02:30;4.38;;;2.08;;
43628;SDS011;56545;48.224;11.678;2023-01-01T17:04:56;4.95;;;2.20;;
43628;SDS011;56545;48.224;11.678;2023-01-01T17:07:22;4.70;;;2.05;;
43628;SDS011;56545;48.224;11.678;2023-01-01T17:09:48;4.82;;;2.22;;
43628;SDS011;56545;48.224;11.678;2023-01-01T17:12:14;4.22;;;2.05;;
43628;SDS011;56545;48.224;11.678;2023-01-01T17:14:40;4.90;;;2.20;;
43628;SDS011;56545;48.224;11.678;2023-01-01T17:17:06;5.85;;;2.10;;